createdAt,value
2018-04-14T00:01:53.119Z,43.80
2018-04-14T00:04:19.305Z,47.30
2018-04-14T00:06:45.509Z,41.03
2018-04-14T00:09:11.693Z,44.00
2018-04-14T00:11:39.163Z,42.33
2018-04-14T00:14:05.329Z,42.37
2018-04-14T00:16:31.514Z,45.50
2018-04-14T00:18:57.686Z,48.47
2018-04-14T00:21:23.862Z,40.47
2018-04-14T00:23:50.115Z,66.33
2018-04-14T00:26:16.286Z,71.97
2018-04-14T00:28:42.474Z,60.03
2018-04-14T00:31:08.658Z,51.33
2018-04-14T00:33:34.853Z,50.17
2018-04-14T00:36:02.138Z,51.27
2018-04-14T00:38:28.343Z,50.90
2018-04-14T00:40:54.518Z,54.87
2018-04-14T00:43:20.694Z,47.50
2018-04-14T00:45:46.889Z,44.00
2018-04-14T00:48:13.069Z,47.03
2018-04-14T00:50:39.315Z,51.77
2018-04-14T00:53:17.766Z,48.40
2018-04-14T00:55:45.098Z,51.50
2018-04-14T00:58:12.394Z,52.23
2018-04-14T01:00:38.562Z,48.20
2018-04-14T01:03:05.884Z,55.97
2018-04-14T01:05:32.091Z,74.80
2018-04-14T01:07:58.304Z,161.73
2018-04-14T01:10:24.486Z,79.47
2018-04-14T01:12:50.700Z,133.93
2018-04-14T01:15:16.871Z,169.43
2018-04-14T01:17:43.051Z,157.27
2018-04-14T01:20:09.258Z,112.90
2018-04-14T01:22:35.452Z,81.07
2018-04-14T01:25:01.712Z,63.37
2018-04-14T01:27:28.984Z,41.90
2018-04-14T01:29:55.148Z,41.00
2018-04-14T01:32:21.383Z,122.00
2018-04-14T01:34:49.318Z,106.10
2018-04-14T01:37:15.495Z,211.43
2018-04-14T01:39:41.671Z,32.20
2018-04-14T01:42:07.866Z,172.90
2018-04-14T01:44:35.158Z,364.63
2018-04-14T01:47:01.329Z,357.60
2018-04-14T01:49:28.595Z,345.23
2018-04-14T01:51:54.787Z,299.17
2018-04-14T01:54:22.688Z,280.10
2018-04-14T01:56:48.850Z,153.97
2018-04-14T01:59:15.042Z,89.87
2018-04-14T02:01:41.252Z,72.87
2018-04-14T02:04:07.412Z,43.10
2018-04-14T02:06:33.697Z,37.50
2018-04-14T02:09:00.982Z,33.77
2018-04-14T02:11:27.196Z,32.47
2018-04-14T02:13:53.370Z,35.70
2018-04-14T02:16:19.575Z,41.20
2018-04-14T02:18:47.465Z,40.23
2018-04-14T02:21:13.710Z,38.47
2018-04-14T02:23:39.891Z,42.87
2018-04-14T02:26:06.056Z,38.93
2018-04-14T02:28:32.234Z,40.50
2018-04-14T02:30:58.438Z,40.80
2018-04-14T02:33:24.606Z,42.83
2018-04-14T02:35:51.923Z,41.60
2018-04-14T02:38:18.114Z,39.67
2018-04-14T02:40:44.290Z,39.63
2018-04-14T02:43:10.494Z,40.00
2018-04-14T02:45:36.674Z,42.73
2018-04-14T02:48:02.882Z,46.20
2018-04-14T02:50:29.085Z,54.03
2018-04-14T02:52:55.276Z,114.33
2018-04-14T02:55:21.430Z,115.63
2018-04-14T02:57:47.618Z,51.07
2018-04-14T03:00:13.786Z,51.67
2018-04-14T03:02:40.021Z,387.30
2018-04-14T03:05:06.232Z,116.57
2018-04-14T03:07:32.397Z,109.87
2018-04-14T03:09:58.619Z,213.33
2018-04-14T03:12:25.889Z,159.53
2018-04-14T03:14:52.075Z,42.07
2018-04-14T03:17:19.347Z,303.53
2018-04-14T03:19:45.554Z,126.07
2018-04-14T03:22:11.718Z,46.00
2018-04-14T03:24:37.898Z,37.43
2018-04-14T03:27:04.070Z,43.77
2018-04-14T03:29:30.280Z,51.43
2018-04-14T03:31:57.546Z,81.00
2018-04-14T03:34:23.733Z,67.03
2018-04-14T03:36:51.033Z,42.43
2018-04-14T03:39:17.239Z,116.30
2018-04-14T03:41:43.402Z,63.57
2018-04-14T03:44:10.699Z,69.00
2018-04-14T03:46:37.523Z,32.33
2018-04-14T03:49:04.856Z,65.13
2018-04-14T03:51:31.061Z,70.47
2018-04-14T03:53:57.232Z,89.33
2018-04-14T03:56:24.544Z,39.10
2018-04-14T03:58:50.719Z,40.70
2018-04-14T04:01:16.915Z,79.93
2018-04-14T04:03:43.102Z,48.00
2018-04-14T04:06:10.385Z,84.87
2018-04-14T04:08:36.569Z,88.17
2018-04-14T04:11:02.770Z,78.30
2018-04-14T04:13:30.426Z,42.20
2018-04-14T04:15:56.636Z,142.97
2018-04-14T04:18:35.191Z,42.90
2018-04-14T04:21:15.023Z,33.10
2018-04-14T04:23:53.367Z,150.37
2018-04-14T04:26:19.558Z,84.73
2018-04-14T04:28:45.735Z,156.07
2018-04-14T04:31:11.936Z,148.40
2018-04-14T04:33:38.086Z,30.33
2018-04-14T04:36:04.288Z,321.37
2018-04-14T04:38:30.473Z,143.30
2018-04-14T04:40:56.650Z,35.90
2018-04-14T04:43:23.970Z,156.73
2018-04-14T04:45:50.159Z,243.67
2018-04-14T04:48:16.378Z,171.80
2018-04-14T04:50:42.538Z,51.17
2018-04-14T04:53:08.734Z,263.90
2018-04-14T04:55:36.020Z,141.30
2018-04-14T04:58:02.267Z,89.07
2018-04-14T05:00:28.438Z,154.20
2018-04-14T05:02:54.628Z,110.03
2018-04-14T05:05:22.529Z,176.83
2018-04-14T05:07:48.797Z,142.53
2018-04-14T05:10:14.980Z,162.80
2018-04-14T05:12:41.168Z,94.70
2018-04-14T05:15:07.328Z,227.50
2018-04-14T05:17:35.271Z,95.13
2018-04-14T05:20:02.586Z,87.37
2018-04-14T05:22:28.773Z,30.43
2018-04-14T05:24:56.815Z,35.40
2018-04-14T05:27:23.049Z,69.50
2018-04-14T05:29:49.225Z,57.07
2018-04-14T05:32:16.514Z,138.87
2018-04-14T05:34:42.750Z,71.67
2018-04-14T05:37:08.913Z,62.87
2018-04-14T05:39:35.349Z,54.97
2018-04-14T05:42:03.074Z,89.70
2018-04-14T05:44:29.255Z,45.47
2018-04-14T05:46:57.159Z,44.57
2018-04-14T05:49:23.343Z,106.97
2018-04-14T05:51:49.680Z,61.90
2018-04-14T05:54:17.581Z,140.13
2018-04-14T05:56:45.486Z,144.97
2018-04-14T05:59:13.460Z,54.83
2018-04-14T06:01:41.544Z,55.93
2018-04-14T06:04:07.798Z,29.20
2018-04-14T06:06:33.991Z,62.67
2018-04-14T06:09:01.432Z,64.03
2018-04-14T06:11:28.827Z,42.77
2018-04-14T06:13:55.961Z,59.87
2018-04-14T06:16:22.212Z,62.20
2018-04-14T06:18:51.109Z,61.70
2018-04-14T06:21:18.428Z,44.57
2018-04-14T06:23:44.625Z,51.07
2018-04-14T06:26:12.051Z,40.10
2018-04-14T06:28:38.234Z,41.80
2018-04-14T06:31:04.436Z,36.57
2018-04-14T06:33:30.672Z,47.87
2018-04-14T06:35:56.878Z,41.97
2018-04-14T06:38:23.073Z,45.23
2018-04-14T06:40:49.285Z,44.10
2018-04-14T06:43:15.518Z,42.63
2018-04-14T06:45:41.780Z,44.27
2018-04-14T06:48:08.111Z,43.93
2018-04-14T06:50:34.342Z,47.90
2018-04-14T06:53:00.512Z,42.23
2018-04-14T06:55:26.809Z,39.00
2018-04-14T06:57:53.047Z,44.73
2018-04-14T07:00:19.214Z,39.80
2018-04-14T07:02:45.885Z,38.87
2018-04-14T07:05:12.147Z,34.17
2018-04-14T07:07:39.427Z,38.37
2018-04-14T07:10:05.714Z,38.57
2018-04-14T07:12:31.897Z,35.37
2018-04-14T07:14:59.929Z,33.07
2018-04-14T07:17:26.386Z,29.97
2018-04-14T07:19:52.722Z,31.80
2018-04-14T07:22:19.046Z,36.57
2018-04-14T07:24:45.364Z,37.23
2018-04-14T07:27:11.843Z,38.97
2018-04-14T07:29:38.233Z,36.97
2018-04-14T07:32:04.610Z,38.27
2018-04-14T07:34:30.894Z,34.63
2018-04-14T07:36:57.148Z,36.73
2018-04-14T07:39:23.360Z,35.60
2018-04-14T07:41:49.579Z,31.40
2018-04-14T07:44:15.767Z,35.90
2018-04-14T07:46:42.070Z,31.17
2018-04-14T07:49:08.326Z,38.27
2018-04-14T07:51:34.556Z,30.77
2018-04-14T07:54:00.963Z,29.00
2018-04-14T07:56:27.214Z,29.07
2018-04-14T07:58:55.343Z,28.30
2018-04-14T08:01:22.652Z,27.57
2018-04-14T08:03:48.893Z,26.90
2018-04-14T08:06:15.247Z,25.13
2018-04-14T08:08:41.497Z,24.37
2018-04-14T08:11:07.715Z,23.17
2018-04-14T08:13:34.563Z,20.93
2018-04-14T08:16:00.853Z,21.57
2018-04-14T08:18:27.134Z,21.70
2018-04-14T08:20:53.409Z,20.90
2018-04-14T08:23:19.638Z,21.77
2018-04-14T08:25:45.848Z,18.83
2018-04-14T08:28:12.135Z,21.13
2018-04-14T08:30:38.343Z,20.07
2018-04-14T08:33:06.658Z,20.17
2018-04-14T08:35:35.026Z,20.73
2018-04-14T08:38:02.231Z,18.90
2018-04-14T08:40:28.485Z,18.30
2018-04-14T08:42:54.792Z,17.43
2018-04-14T08:45:22.094Z,16.77
2018-04-14T08:47:48.342Z,16.27
2018-04-14T08:50:15.724Z,18.60
2018-04-14T08:52:41.906Z,17.17
2018-04-14T08:55:08.206Z,17.90
2018-04-14T08:57:35.514Z,17.50
2018-04-14T09:00:01.734Z,16.60
2018-04-14T09:02:28.020Z,14.67
2018-04-14T09:04:54.218Z,15.40
2018-04-14T09:07:20.480Z,15.63
2018-04-14T09:09:46.699Z,14.80
2018-04-14T09:12:12.915Z,14.70
2018-04-14T09:14:39.103Z,14.65
2018-04-14T09:17:05.306Z,15.07
2018-04-14T09:19:31.644Z,12.43
2018-04-14T09:21:57.948Z,12.13
2018-04-14T09:24:24.236Z,13.68
2018-04-14T09:26:50.433Z,12.60
2018-04-14T09:29:16.632Z,10.82
2018-04-14T09:31:45.163Z,10.85
2018-04-14T09:34:13.496Z,9.32
2018-04-14T09:36:40.438Z,9.63
2018-04-14T09:39:07.394Z,9.02
2018-04-14T09:41:34.079Z,20.80
2018-04-14T09:44:01.970Z,10.20
2018-04-14T09:46:33.704Z,10.02
2018-04-14T09:49:03.273Z,11.85
2018-04-14T09:51:30.197Z,15.00
2018-04-14T09:53:57.258Z,14.35
2018-04-14T09:56:23.963Z,14.32
2018-04-14T09:59:00.634Z,11.75
2018-04-14T10:01:28.478Z,9.10
2018-04-14T10:03:58.564Z,8.77
2018-04-14T10:06:26.233Z,8.55
2018-04-14T10:08:52.448Z,13.30
2018-04-14T10:11:18.681Z,8.13
2018-04-14T10:13:44.875Z,9.20
2018-04-14T10:16:11.152Z,8.60
2018-04-14T10:18:37.303Z,46.47
2018-04-14T10:21:03.582Z,10.20
2018-04-14T10:23:29.816Z,9.13
2018-04-14T10:25:56.046Z,9.25
2018-04-14T10:28:22.374Z,8.80
2018-04-14T10:30:48.729Z,9.10
2018-04-14T10:33:15.032Z,7.70
2018-04-14T10:35:41.272Z,8.80
2018-04-14T10:38:07.658Z,7.37
2018-04-14T10:40:33.982Z,8.13
2018-04-14T10:43:00.345Z,7.93
2018-04-14T10:45:26.786Z,6.35
2018-04-14T10:47:53.075Z,7.40
2018-04-14T10:50:19.277Z,6.35
2018-04-14T10:52:45.495Z,6.45
2018-04-14T10:55:11.697Z,7.10
2018-04-14T10:57:37.906Z,6.12
2018-04-14T11:00:04.094Z,6.00
2018-04-14T11:02:30.411Z,5.25
2018-04-14T11:04:57.627Z,5.50
2018-04-14T11:07:23.821Z,5.30
2018-04-14T11:09:50.110Z,6.03
2018-04-14T11:12:16.588Z,5.90
2018-04-14T11:14:42.784Z,9.00
2018-04-14T11:17:08.987Z,5.82
2018-04-14T11:19:35.203Z,4.90
2018-04-14T11:22:01.418Z,5.45
2018-04-14T11:24:27.615Z,4.80
2018-04-14T11:26:53.810Z,4.95
2018-04-14T11:29:20.014Z,4.78
2018-04-14T11:31:46.931Z,4.62
2018-04-14T11:34:13.898Z,5.05
2018-04-14T11:36:40.101Z,4.55
2018-04-14T11:39:06.290Z,7.00
2018-04-14T11:41:33.198Z,12.23
2018-04-14T11:43:59.427Z,15.45
2018-04-14T11:46:25.614Z,4.28
2018-04-14T11:48:51.819Z,5.90
2018-04-14T11:51:17.982Z,5.22
2018-04-14T11:53:44.913Z,3.97
2018-04-14T11:56:11.821Z,2.70
2018-04-14T11:58:38.038Z,3.08
2018-04-14T12:01:05.019Z,3.35
2018-04-14T12:03:31.210Z,2.45
2018-04-14T12:05:57.407Z,2.17
2018-04-14T12:08:23.998Z,2.25
2018-04-14T12:10:50.194Z,2.35
2018-04-14T12:13:16.382Z,1.48
2018-04-14T12:15:42.582Z,1.15
2018-04-14T12:18:08.755Z,2.37
2018-04-14T12:20:34.943Z,1.65
2018-04-14T12:23:01.135Z,3.85
2018-04-14T12:25:27.415Z,1.35
2018-04-14T12:27:54.343Z,1.33
2018-04-14T12:30:20.524Z,1.67
2018-04-14T12:32:46.706Z,2.80
2018-04-14T12:35:12.906Z,2.80
2018-04-14T12:37:39.091Z,2.83
2018-04-14T12:40:05.375Z,2.30
2018-04-14T12:42:31.606Z,2.00
2018-04-14T12:44:57.842Z,1.52
2018-04-14T12:47:24.759Z,1.10
2018-04-14T12:49:51.059Z,0.90
2018-04-14T12:52:17.282Z,5.70
2018-04-14T12:54:44.274Z,3.60
2018-04-14T12:57:10.496Z,0.90
2018-04-14T12:59:36.695Z,0.80
2018-04-14T13:02:02.894Z,1.15
2018-04-14T13:04:29.075Z,1.80
2018-04-14T13:06:55.252Z,2.95
2018-04-14T13:09:21.430Z,0.88
2018-04-14T13:11:47.622Z,1.02
2018-04-14T13:14:14.545Z,0.80
2018-04-14T13:16:41.493Z,2.50
2018-04-14T13:19:08.499Z,0.93
2018-04-14T13:21:34.644Z,0.73
2018-04-14T13:24:01.575Z,1.52
2018-04-14T13:26:27.792Z,1.27
2018-04-14T13:28:53.978Z,0.98
2018-04-14T13:31:20.319Z,3.17
2018-04-14T13:33:46.499Z,1.70
2018-04-14T13:36:12.694Z,2.20
2018-04-14T13:38:38.887Z,3.22
2018-04-14T13:41:05.139Z,2.70
2018-04-14T13:43:31.335Z,4.07
2018-04-14T13:45:57.522Z,0.73
2018-04-14T13:48:23.718Z,1.52
2018-04-14T13:50:49.876Z,0.80
2018-04-14T13:53:16.063Z,0.62
2018-04-14T13:55:42.604Z,0.77
2018-04-14T13:58:08.815Z,4.07
2018-04-14T14:00:34.990Z,1.05
2018-04-14T14:03:01.184Z,2.22
2018-04-14T14:05:28.101Z,3.37
2018-04-14T14:07:54.300Z,2.00
2018-04-14T14:10:20.486Z,0.85
2018-04-14T14:12:46.677Z,1.75
2018-04-14T14:15:12.846Z,1.27
2018-04-14T14:17:39.078Z,1.42
2018-04-14T14:20:06.002Z,1.02
2018-04-14T14:22:32.493Z,5.72
2018-04-14T14:24:58.747Z,3.87
2018-04-14T14:27:25.273Z,3.20
2018-04-14T14:29:52.488Z,0.57
2018-04-14T14:32:18.763Z,0.50
2018-04-14T14:34:45.043Z,10.38
2018-04-14T14:37:11.309Z,0.90
2018-04-14T14:39:37.506Z,1.05
2018-04-14T14:42:03.923Z,2.70
2018-04-14T14:44:30.153Z,2.47
2018-04-14T14:46:56.494Z,4.50
2018-04-14T14:49:22.691Z,4.28
2018-04-14T14:51:48.883Z,4.47
2018-04-14T14:54:15.074Z,2.10
2018-04-14T14:56:41.268Z,0.40
2018-04-14T14:59:08.445Z,1.23
2018-04-14T15:01:34.599Z,3.15
2018-04-14T15:04:00.789Z,2.42
2018-04-14T15:06:26.992Z,2.90
2018-04-14T15:08:53.226Z,2.92
2018-04-14T15:11:19.390Z,5.82
2018-04-14T15:13:45.806Z,0.75
2018-04-14T15:16:12.015Z,1.37
2018-04-14T15:18:38.294Z,0.82
2018-04-14T15:21:05.778Z,4.85
2018-04-14T15:23:32.109Z,9.13
2018-04-14T15:25:58.412Z,1.25
2018-04-14T15:28:24.685Z,0.60
2018-04-14T15:30:52.014Z,1.98
2018-04-14T15:33:18.206Z,2.20
2018-04-14T15:35:44.499Z,0.77
2018-04-14T15:38:10.682Z,0.50
2018-04-14T15:40:38.067Z,0.65
2018-04-14T15:43:04.305Z,1.42
2018-04-14T15:45:31.296Z,1.20
2018-04-14T15:47:57.477Z,2.22
2018-04-14T15:50:23.698Z,1.20
2018-04-14T15:52:50.631Z,1.08
2018-04-14T15:55:16.838Z,0.70
2018-04-14T15:57:43.775Z,6.45
2018-04-14T16:00:09.994Z,3.17
2018-04-14T16:02:36.186Z,1.75
2018-04-14T16:05:03.099Z,1.50
2018-04-14T16:07:29.360Z,5.65
2018-04-14T16:09:55.590Z,1.48
2018-04-14T16:12:21.799Z,3.72
2018-04-14T16:14:48.658Z,0.62
2018-04-14T16:17:15.170Z,1.55
2018-04-14T16:19:41.362Z,1.98
2018-04-14T16:22:07.596Z,2.58
2018-04-14T16:24:33.848Z,5.43
2018-04-14T16:27:00.063Z,4.35
2018-04-14T16:29:27.476Z,1.62
2018-04-14T16:31:53.725Z,0.90
2018-04-14T16:34:20.074Z,3.30
2018-04-14T16:36:46.334Z,4.78
2018-04-14T16:39:12.593Z,6.28
2018-04-14T16:41:38.926Z,7.93
2018-04-14T16:44:05.363Z,16.27
2018-04-14T16:46:31.576Z,2.47
2018-04-14T16:48:57.799Z,17.12
2018-04-14T16:51:24.055Z,21.08
2018-04-14T16:53:50.366Z,22.92
2018-04-14T16:56:17.683Z,19.33
2018-04-14T16:58:43.994Z,17.48
2018-04-14T17:01:10.580Z,14.02
2018-04-14T17:03:36.807Z,36.67
2018-04-14T17:06:03.894Z,17.45
2018-04-14T17:08:30.197Z,24.65
2018-04-14T17:10:57.634Z,10.70
2018-04-14T17:13:23.938Z,17.95
2018-04-14T17:15:50.161Z,14.13
2018-04-14T17:18:16.352Z,35.65
2018-04-14T17:20:42.547Z,25.23
2018-04-14T17:23:08.778Z,28.90
2018-04-14T17:25:34.978Z,52.33
2018-04-14T17:28:01.307Z,63.65
2018-04-14T17:30:27.529Z,82.00
2018-04-14T17:32:54.786Z,59.55
2018-04-14T17:35:20.992Z,37.70
2018-04-14T17:37:47.190Z,24.98
2018-04-14T17:40:13.374Z,41.15
2018-04-14T17:42:39.554Z,27.48
2018-04-14T17:45:06.855Z,13.07
2018-04-14T17:47:33.159Z,7.90
2018-04-14T17:50:00.203Z,3.10
2018-04-14T17:52:26.427Z,4.57
2018-04-14T17:54:52.618Z,8.10
2018-04-14T17:57:18.839Z,10.55
2018-04-14T17:59:45.153Z,26.08
2018-04-14T18:02:11.373Z,26.92
2018-04-14T18:04:37.569Z,15.05
2018-04-14T18:07:03.780Z,16.95
2018-04-14T18:09:30.003Z,30.62
2018-04-14T18:11:56.191Z,18.40
2018-04-14T18:14:22.382Z,8.05
2018-04-14T18:16:49.209Z,4.65
2018-04-14T18:19:15.402Z,5.85
2018-04-14T18:21:41.615Z,4.40
2018-04-14T18:24:08.979Z,3.10
2018-04-14T18:26:35.162Z,1.85
2018-04-14T18:29:01.451Z,2.20
2018-04-14T18:31:27.832Z,6.75
2018-04-14T18:33:54.325Z,5.85
2018-04-14T18:36:21.683Z,7.62
2018-04-14T18:38:48.828Z,4.53
2018-04-14T18:41:15.097Z,2.10
2018-04-14T18:43:41.479Z,4.45
2018-04-14T18:46:08.241Z,6.20
2018-04-14T18:48:34.470Z,6.05
2018-04-14T18:51:00.769Z,4.68
2018-04-14T18:53:27.227Z,6.07
2018-04-14T18:55:53.435Z,2.53
2018-04-14T18:58:21.362Z,3.47
2018-04-14T19:00:47.554Z,7.85
2018-04-14T19:03:13.738Z,3.95
2018-04-14T19:05:40.011Z,6.53
2018-04-14T19:08:06.234Z,6.10
2018-04-14T19:10:32.585Z,10.10
2018-04-14T19:12:58.814Z,6.32
2018-04-14T19:15:25.204Z,17.90
2018-04-14T19:17:51.430Z,11.95
2018-04-14T19:20:17.687Z,6.30
2018-04-14T19:22:44.032Z,8.95
2018-04-14T19:25:12.001Z,3.00
2018-04-14T19:27:38.698Z,4.68
2018-04-14T19:30:05.026Z,7.28
2018-04-14T19:32:32.644Z,6.10
2018-04-14T19:34:59.004Z,4.30
2018-04-14T19:37:25.219Z,10.43
2018-04-14T19:39:51.423Z,10.93
2018-04-14T19:42:18.803Z,13.25
2018-04-14T19:44:45.008Z,17.30
2018-04-14T19:47:11.351Z,12.77
2018-04-14T19:49:37.517Z,6.13
2018-04-14T19:52:03.907Z,6.72
2018-04-14T19:54:30.251Z,5.23
2018-04-14T19:56:56.754Z,4.53
2018-04-14T19:59:26.034Z,9.47
2018-04-14T20:01:52.754Z,2.03
2018-04-14T20:04:19.109Z,4.90
2018-04-14T20:06:45.832Z,6.00
2018-04-14T20:09:13.341Z,4.20
2018-04-14T20:11:41.608Z,7.03
2018-04-14T20:14:07.971Z,10.20
2018-04-14T20:16:34.298Z,17.63
2018-04-14T20:19:00.492Z,3.13
2018-04-14T20:21:26.710Z,4.33
2018-04-14T20:23:53.047Z,6.80
2018-04-14T20:26:19.635Z,3.90
2018-04-14T20:28:49.260Z,3.03
2018-04-14T20:31:16.374Z,6.10
2018-04-14T20:33:43.358Z,6.43
2018-04-14T20:36:10.109Z,3.83
2018-04-14T20:38:37.588Z,4.23
2018-04-14T20:41:04.881Z,5.30
2018-04-14T20:43:33.860Z,5.53
2018-04-14T20:46:00.269Z,3.80
2018-04-14T20:48:26.986Z,7.97
2018-04-14T20:50:53.160Z,9.17
2018-04-14T20:53:19.386Z,7.13
2018-04-14T20:55:46.522Z,16.17
2018-04-14T20:58:12.695Z,7.57
2018-04-14T21:00:38.934Z,15.20
2018-04-14T21:03:06.320Z,9.57
2018-04-14T21:05:33.848Z,8.23
2018-04-14T21:08:00.711Z,6.70
2018-04-14T21:10:27.088Z,13.73
2018-04-14T21:12:53.680Z,16.23
2018-04-14T21:15:20.135Z,8.17
2018-04-14T21:17:47.811Z,16.63
2018-04-14T21:20:15.522Z,17.77
2018-04-14T21:22:43.578Z,10.27
2018-04-14T21:25:10.701Z,12.17
2018-04-14T21:27:37.841Z,17.57
2018-04-14T21:30:05.057Z,10.83
2018-04-14T21:32:32.779Z,14.57
2018-04-14T21:34:59.828Z,8.97
2018-04-14T21:37:26.695Z,14.67
2018-04-14T21:39:56.995Z,10.10
2018-04-14T21:42:24.821Z,13.03
2018-04-14T21:44:51.702Z,6.70
2018-04-14T21:47:30.942Z,4.43
2018-04-14T21:49:58.540Z,4.83
2018-04-14T21:52:24.975Z,3.43
2018-04-14T21:54:51.296Z,4.93
2018-04-14T21:57:18.654Z,5.03
2018-04-14T21:59:44.846Z,7.87
2018-04-14T22:02:11.016Z,4.50
2018-04-14T22:04:37.306Z,6.43
2018-04-14T22:07:04.970Z,6.67
2018-04-14T22:09:31.214Z,6.80
2018-04-14T22:11:57.582Z,14.40
2018-04-14T22:14:32.288Z,12.00
2018-04-14T22:16:58.818Z,11.27
2018-04-14T22:19:25.386Z,4.47
2018-04-14T22:21:51.601Z,6.17
2018-04-14T22:24:17.842Z,7.93
2018-04-14T22:26:44.015Z,10.93
2018-04-14T22:29:11.195Z,21.20
2018-04-14T22:31:37.607Z,18.17
2018-04-14T22:34:04.192Z,13.37
2018-04-14T22:36:30.547Z,10.60
2018-04-14T22:38:57.048Z,8.07
2018-04-14T22:41:23.297Z,6.63
2018-04-14T22:43:49.558Z,4.40
2018-04-14T22:46:15.763Z,5.03
2018-04-14T22:48:42.201Z,7.30
2018-04-14T22:51:09.389Z,10.27
2018-04-14T22:53:37.382Z,7.73
2018-04-14T22:56:03.676Z,7.33
2018-04-14T22:58:30.018Z,6.97
2018-04-14T23:00:56.398Z,9.37
2018-04-14T23:03:23.941Z,5.97
2018-04-14T23:05:50.190Z,5.93
2018-04-14T23:08:16.390Z,8.87
2018-04-14T23:10:42.556Z,9.17
2018-04-14T23:13:08.754Z,10.03
2018-04-14T23:15:34.922Z,11.03
2018-04-14T23:18:01.102Z,10.87
2018-04-14T23:20:27.278Z,9.50
2018-04-14T23:22:53.434Z,12.20
2018-04-14T23:25:20.741Z,8.93
2018-04-14T23:27:46.934Z,12.27
2018-04-14T23:30:13.122Z,38.73
2018-04-14T23:32:39.310Z,46.60
2018-04-14T23:35:07.007Z,42.70
2018-04-14T23:37:33.155Z,28.17
2018-04-14T23:39:59.350Z,33.23
2018-04-14T23:42:25.534Z,28.00
2018-04-14T23:44:51.751Z,21.10
2018-04-14T23:47:17.922Z,19.90
2018-04-14T23:49:45.237Z,16.97
2018-04-14T23:52:11.419Z,14.50
2018-04-14T23:54:38.190Z,15.57
2018-04-14T23:57:04.404Z,15.23
2018-04-14T23:59:30.564Z,10.17
